sensor_id;sensor_type;location;lat;lon;timestamp;P1;durP1;ratioP1;P2;durP2;ratioP2
18146;SDS011;9199;48.832;9.182;2023-07-29T00:01:18;9.33;;;3.40;;
18146;SDS011;9199;48.832;9.182;2023-07-29T00:03:45;6.63;;;4.00;;
18146;SDS011;9199;48.832;9.182;2023-07-29T00:06:12;6.28;;;3.38;;
18146;SDS011;9199;48.832;9.182;2023-07-29T00:08:38;6.78;;;3.80;;
18146;SDS011;9199;48.832;9.182;2023-07-29T00:11:07;6.18;;;3.53;;
18146;SDS011;9199;48.832;9.182;2023-07-29T00:13:33;5.53;;;3.20;;
18146;SDS011;9199;48.832;9.182;2023-07-29T00:16:00;6.07;;;3.20;;
18146;SDS011;9199;48.832;9.182;2023-07-29T00:18:27;7.97;;;3.50;;
18146;SDS011;9199;48.832;9.182;2023-07-29T00:20:53;5.07;;;3.05;;
18146;SDS011;9199;48.832;9.182;2023-07-29T00:23:20;5.15;;;3.10;;
18146;SDS011;9199;48.832;9.182;2023-07-29T00:25:47;5.77;;;2.90;;
18146;SDS011;9199;48.832;9.182;2023-07-29T00:28:15;6.50;;;3.22;;
18146;SDS011;9199;48.832;9.182;2023-07-29T00:30:42;7.57;;;3.80;;
18146;SDS011;9199;48.832;9.182;2023-07-29T00:33:09;8.90;;;3.90;;
18146;SDS011;9199;48.832;9.182;2023-07-29T00:35:36;6.00;;;3.50;;
18146;SDS011;9199;48.832;9.182;2023-07-29T00:38:02;8.20;;;3.83;;
18146;SDS011;9199;48.832;9.182;2023-07-29T00:40:29;5.30;;;2.72;;
18146;SDS011;9199;48.832;9.182;2023-07-29T00:42:56;6.93;;;3.28;;
18146;SDS011;9199;48.832;9.182;2023-07-29T00:45:25;5.70;;;2.95;;
18146;SDS011;9199;48.832;9.182;2023-07-29T00:47:53;6.63;;;2.90;;
18146;SDS011;9199;48.832;9.182;2023-07-29T00:50:20;5.87;;;2.90;;
18146;SDS011;9199;48.832;9.182;2023-07-29T00:52:47;6.60;;;2.65;;
18146;SDS011;9199;48.832;9.182;2023-07-29T00:55:15;6.03;;;2.67;;
18146;SDS011;9199;48.832;9.182;2023-07-29T00:57:43;5.55;;;2.95;;
18146;SDS011;9199;48.832;9.182;2023-07-29T01:00:13;4.90;;;2.50;;
18146;SDS011;9199;48.832;9.182;2023-07-29T01:02:41;6.20;;;2.70;;
18146;SDS011;9199;48.832;9.182;2023-07-29T01:05:08;4.53;;;2.60;;
18146;SDS011;9199;48.832;9.182;2023-07-29T01:07:39;6.32;;;2.80;;
18146;SDS011;9199;48.832;9.182;2023-07-29T01:10:16;5.55;;;2.40;;
18146;SDS011;9199;48.832;9.182;2023-07-29T01:12:54;6.50;;;2.47;;
18146;SDS011;9199;48.832;9.182;2023-07-29T01:15:28;5.20;;;2.50;;
18146;SDS011;9199;48.832;9.182;2023-07-29T01:18:01;4.55;;;2.40;;
18146;SDS011;9199;48.832;9.182;2023-07-29T01:20:32;5.55;;;2.60;;
18146;SDS011;9199;48.832;9.182;2023-07-29T01:22:59;4.18;;;2.50;;
18146;SDS011;9199;48.832;9.182;2023-07-29T01:25:28;5.25;;;2.40;;
18146;SDS011;9199;48.832;9.182;2023-07-29T01:27:54;6.37;;;2.50;;
18146;SDS011;9199;48.832;9.182;2023-07-29T01:30:22;4.65;;;2.30;;
18146;SDS011;9199;48.832;9.182;2023-07-29T01:32:55;5.43;;;2.60;;
18146;SDS011;9199;48.832;9.182;2023-07-29T01:35:27;5.00;;;2.35;;
18146;SDS011;9199;48.832;9.182;2023-07-29T01:37:57;4.72;;;2.42;;
18146;SDS011;9199;48.832;9.182;2023-07-29T01:40:37;4.87;;;2.40;;
18146;SDS011;9199;48.832;9.182;2023-07-29T01:43:04;7.07;;;2.67;;
18146;SDS011;9199;48.832;9.182;2023-07-29T01:45:32;4.88;;;2.42;;
18146;SDS011;9199;48.832;9.182;2023-07-29T01:48:02;5.25;;;2.40;;
18146;SDS011;9199;48.832;9.182;2023-07-29T01:50:30;5.00;;;2.47;;
18146;SDS011;9199;48.832;9.182;2023-07-29T01:52:57;5.67;;;1.77;;
18146;SDS011;9199;48.832;9.182;2023-07-29T01:55:24;4.70;;;2.17;;
18146;SDS011;9199;48.832;9.182;2023-07-29T01:57:52;5.25;;;2.25;;
18146;SDS011;9199;48.832;9.182;2023-07-29T02:00:19;5.07;;;2.17;;
18146;SDS011;9199;48.832;9.182;2023-07-29T02:02:45;3.70;;;1.80;;
18146;SDS011;9199;48.832;9.182;2023-07-29T02:05:12;3.60;;;1.60;;
18146;SDS011;9199;48.832;9.182;2023-07-29T02:07:39;4.68;;;1.95;;
18146;SDS011;9199;48.832;9.182;2023-07-29T02:10:06;3.60;;;1.63;;
18146;SDS011;9199;48.832;9.182;2023-07-29T02:12:34;3.53;;;1.60;;
18146;SDS011;9199;48.832;9.182;2023-07-29T02:15:02;4.20;;;1.70;;
18146;SDS011;9199;48.832;9.182;2023-07-29T02:17:29;3.43;;;1.60;;
18146;SDS011;9199;48.832;9.182;2023-07-29T02:19:56;4.60;;;1.70;;
18146;SDS011;9199;48.832;9.182;2023-07-29T02:22:22;4.35;;;1.80;;
18146;SDS011;9199;48.832;9.182;2023-07-29T02:24:49;3.65;;;1.60;;
18146;SDS011;9199;48.832;9.182;2023-07-29T02:27:16;4.70;;;1.60;;
18146;SDS011;9199;48.832;9.182;2023-07-29T02:29:43;5.10;;;1.67;;
18146;SDS011;9199;48.832;9.182;2023-07-29T02:32:11;3.67;;;1.30;;
18146;SDS011;9199;48.832;9.182;2023-07-29T02:34:37;4.05;;;1.60;;
18146;SDS011;9199;48.832;9.182;2023-07-29T02:37:04;3.92;;;1.60;;
18146;SDS011;9199;48.832;9.182;2023-07-29T02:39:31;3.53;;;1.70;;
18146;SDS011;9199;48.832;9.182;2023-07-29T02:41:57;4.97;;;1.60;;
18146;SDS011;9199;48.832;9.182;2023-07-29T02:44:24;4.55;;;1.80;;
18146;SDS011;9199;48.832;9.182;2023-07-29T02:46:51;4.50;;;2.00;;
18146;SDS011;9199;48.832;9.182;2023-07-29T02:49:21;6.05;;;2.00;;
18146;SDS011;9199;48.832;9.182;2023-07-29T02:51:48;4.75;;;1.90;;
18146;SDS011;9199;48.832;9.182;2023-07-29T02:54:14;4.27;;;1.80;;
18146;SDS011;9199;48.832;9.182;2023-07-29T02:56:41;5.00;;;2.40;;
18146;SDS011;9199;48.832;9.182;2023-07-29T02:59:08;4.72;;;2.35;;
18146;SDS011;9199;48.832;9.182;2023-07-29T03:01:35;4.85;;;2.50;;
18146;SDS011;9199;48.832;9.182;2023-07-29T03:04:01;7.68;;;2.25;;
18146;SDS011;9199;48.832;9.182;2023-07-29T03:06:29;4.90;;;2.50;;
18146;SDS011;9199;48.832;9.182;2023-07-29T03:08:56;4.93;;;2.20;;
18146;SDS011;9199;48.832;9.182;2023-07-29T03:11:23;4.53;;;2.22;;
18146;SDS011;9199;48.832;9.182;2023-07-29T03:13:49;5.65;;;2.60;;
18146;SDS011;9199;48.832;9.182;2023-07-29T03:16:16;5.40;;;2.35;;
18146;SDS011;9199;48.832;9.182;2023-07-29T03:18:44;6.30;;;2.40;;
18146;SDS011;9199;48.832;9.182;2023-07-29T03:21:11;4.55;;;2.40;;
18146;SDS011;9199;48.832;9.182;2023-07-29T03:23:39;8.32;;;2.90;;
18146;SDS011;9199;48.832;9.182;2023-07-29T03:26:06;4.80;;;2.78;;
18146;SDS011;9199;48.832;9.182;2023-07-29T03:28:36;4.03;;;2.03;;
18146;SDS011;9199;48.832;9.182;2023-07-29T03:31:04;6.43;;;2.07;;
18146;SDS011;9199;48.832;9.182;2023-07-29T03:33:31;4.15;;;2.00;;
18146;SDS011;9199;48.832;9.182;2023-07-29T03:35:57;4.18;;;2.20;;
18146;SDS011;9199;48.832;9.182;2023-07-29T03:38:24;4.63;;;1.80;;
18146;SDS011;9199;48.832;9.182;2023-07-29T03:40:52;3.75;;;1.90;;
18146;SDS011;9199;48.832;9.182;2023-07-29T03:43:19;6.23;;;2.40;;
18146;SDS011;9199;48.832;9.182;2023-07-29T03:45:46;6.32;;;2.75;;
18146;SDS011;9199;48.832;9.182;2023-07-29T03:48:12;5.63;;;2.50;;
18146;SDS011;9199;48.832;9.182;2023-07-29T03:50:39;5.25;;;2.75;;
18146;SDS011;9199;48.832;9.182;2023-07-29T03:53:06;8.75;;;2.72;;
18146;SDS011;9199;48.832;9.182;2023-07-29T03:55:35;4.63;;;2.33;;
18146;SDS011;9199;48.832;9.182;2023-07-29T03:58:03;3.85;;;1.90;;
18146;SDS011;9199;48.832;9.182;2023-07-29T04:00:30;4.95;;;2.00;;
18146;SDS011;9199;48.832;9.182;2023-07-29T04:02:56;5.85;;;1.83;;
18146;SDS011;9199;48.832;9.182;2023-07-29T04:05:23;5.13;;;2.00;;
18146;SDS011;9199;48.832;9.182;2023-07-29T04:07:50;4.87;;;2.10;;
18146;SDS011;9199;48.832;9.182;2023-07-29T04:10:18;5.57;;;2.15;;
18146;SDS011;9199;48.832;9.182;2023-07-29T04:12:44;3.97;;;2.30;;
18146;SDS011;9199;48.832;9.182;2023-07-29T04:15:13;4.30;;;1.85;;
18146;SDS011;9199;48.832;9.182;2023-07-29T04:17:40;4.10;;;1.90;;
18146;SDS011;9199;48.832;9.182;2023-07-29T04:20:06;4.63;;;1.87;;
18146;SDS011;9199;48.832;9.182;2023-07-29T04:22:34;4.50;;;1.90;;
18146;SDS011;9199;48.832;9.182;2023-07-29T04:25:01;5.15;;;2.22;;
18146;SDS011;9199;48.832;9.182;2023-07-29T04:27:29;7.15;;;2.10;;
18146;SDS011;9199;48.832;9.182;2023-07-29T04:29:56;6.20;;;2.00;;
18146;SDS011;9199;48.832;9.182;2023-07-29T04:32:24;4.73;;;2.10;;
18146;SDS011;9199;48.832;9.182;2023-07-29T04:34:51;5.05;;;2.17;;
18146;SDS011;9199;48.832;9.182;2023-07-29T04:37:18;5.25;;;2.00;;
18146;SDS011;9199;48.832;9.182;2023-07-29T04:39:45;4.07;;;1.98;;
18146;SDS011;9199;48.832;9.182;2023-07-29T04:42:12;5.65;;;2.28;;
18146;SDS011;9199;48.832;9.182;2023-07-29T04:44:39;4.47;;;1.90;;
18146;SDS011;9199;48.832;9.182;2023-07-29T04:47:06;5.82;;;1.90;;
18146;SDS011;9199;48.832;9.182;2023-07-29T04:49:35;4.68;;;2.30;;
18146;SDS011;9199;48.832;9.182;2023-07-29T04:52:01;6.80;;;2.78;;
18146;SDS011;9199;48.832;9.182;2023-07-29T04:54:28;6.40;;;2.45;;
18146;SDS011;9199;48.832;9.182;2023-07-29T04:56:55;6.00;;;2.17;;
18146;SDS011;9199;48.832;9.182;2023-07-29T04:59:22;5.43;;;2.22;;
18146;SDS011;9199;48.832;9.182;2023-07-29T05:01:49;6.30;;;2.70;;
18146;SDS011;9199;48.832;9.182;2023-07-29T05:04:16;4.55;;;2.40;;
18146;SDS011;9199;48.832;9.182;2023-07-29T05:06:44;5.63;;;2.30;;
18146;SDS011;9199;48.832;9.182;2023-07-29T05:09:14;6.87;;;2.57;;
18146;SDS011;9199;48.832;9.182;2023-07-29T05:11:41;5.60;;;2.60;;
18146;SDS011;9199;48.832;9.182;2023-07-29T05:14:10;5.00;;;2.35;;
18146;SDS011;9199;48.832;9.182;2023-07-29T05:16:37;5.13;;;2.50;;
18146;SDS011;9199;48.832;9.182;2023-07-29T05:19:03;4.95;;;2.70;;
18146;SDS011;9199;48.832;9.182;2023-07-29T05:21:30;5.63;;;2.43;;
18146;SDS011;9199;48.832;9.182;2023-07-29T05:23:58;5.07;;;2.30;;
18146;SDS011;9199;48.832;9.182;2023-07-29T05:26:25;5.50;;;2.50;;
18146;SDS011;9199;48.832;9.182;2023-07-29T05:28:52;4.70;;;2.28;;
18146;SDS011;9199;48.832;9.182;2023-07-29T05:31:19;5.82;;;2.33;;
18146;SDS011;9199;48.832;9.182;2023-07-29T05:33:45;5.00;;;2.53;;
18146;SDS011;9199;48.832;9.182;2023-07-29T05:36:12;5.03;;;2.50;;
18146;SDS011;9199;48.832;9.182;2023-07-29T05:38:39;7.15;;;2.55;;
18146;SDS011;9199;48.832;9.182;2023-07-29T05:41:07;4.75;;;2.40;;
18146;SDS011;9199;48.832;9.182;2023-07-29T05:43:33;4.78;;;2.35;;
18146;SDS011;9199;48.832;9.182;2023-07-29T05:46:00;6.80;;;2.50;;
18146;SDS011;9199;48.832;9.182;2023-07-29T05:48:27;6.88;;;2.63;;
18146;SDS011;9199;48.832;9.182;2023-07-29T05:50:54;5.13;;;2.35;;
18146;SDS011;9199;48.832;9.182;2023-07-29T05:53:20;4.88;;;2.25;;
18146;SDS011;9199;48.832;9.182;2023-07-29T05:55:47;5.38;;;2.20;;
18146;SDS011;9199;48.832;9.182;2023-07-29T05:58:16;5.07;;;2.60;;
18146;SDS011;9199;48.832;9.182;2023-07-29T06:00:42;6.75;;;2.20;;
18146;SDS011;9199;48.832;9.182;2023-07-29T06:03:09;5.60;;;2.10;;
18146;SDS011;9199;48.832;9.182;2023-07-29T06:05:36;5.63;;;2.22;;
18146;SDS011;9199;48.832;9.182;2023-07-29T06:08:02;4.40;;;2.00;;
18146;SDS011;9199;48.832;9.182;2023-07-29T06:10:29;5.87;;;2.00;;
18146;SDS011;9199;48.832;9.182;2023-07-29T06:12:56;6.55;;;2.13;;
18146;SDS011;9199;48.832;9.182;2023-07-29T06:15:24;4.88;;;2.10;;
18146;SDS011;9199;48.832;9.182;2023-07-29T06:17:51;3.90;;;1.88;;
18146;SDS011;9199;48.832;9.182;2023-07-29T06:20:18;4.95;;;1.98;;
18146;SDS011;9199;48.832;9.182;2023-07-29T06:22:44;6.30;;;2.20;;
18146;SDS011;9199;48.832;9.182;2023-07-29T06:25:12;3.65;;;1.80;;
18146;SDS011;9199;48.832;9.182;2023-07-29T06:27:38;5.15;;;2.10;;
18146;SDS011;9199;48.832;9.182;2023-07-29T06:30:06;6.82;;;2.15;;
18146;SDS011;9199;48.832;9.182;2023-07-29T06:32:35;5.50;;;1.95;;
18146;SDS011;9199;48.832;9.182;2023-07-29T06:35:01;6.60;;;2.00;;
18146;SDS011;9199;48.832;9.182;2023-07-29T06:37:28;5.32;;;1.88;;
18146;SDS011;9199;48.832;9.182;2023-07-29T06:39:55;4.18;;;1.80;;
18146;SDS011;9199;48.832;9.182;2023-07-29T06:42:22;4.97;;;2.13;;
18146;SDS011;9199;48.832;9.182;2023-07-29T06:44:48;4.03;;;1.92;;
18146;SDS011;9199;48.832;9.182;2023-07-29T06:47:15;5.43;;;1.90;;
18146;SDS011;9199;48.832;9.182;2023-07-29T06:49:43;5.05;;;2.00;;
18146;SDS011;9199;48.832;9.182;2023-07-29T06:52:11;4.80;;;2.47;;
18146;SDS011;9199;48.832;9.182;2023-07-29T06:54:38;5.10;;;2.10;;
18146;SDS011;9199;48.832;9.182;2023-07-29T06:57:05;4.47;;;2.55;;
18146;SDS011;9199;48.832;9.182;2023-07-29T06:59:33;6.37;;;2.20;;
18146;SDS011;9199;48.832;9.182;2023-07-29T07:02:00;5.70;;;2.15;;
18146;SDS011;9199;48.832;9.182;2023-07-29T07:04:27;5.25;;;2.50;;
18146;SDS011;9199;48.832;9.182;2023-07-29T07:06:55;6.88;;;2.30;;
18146;SDS011;9199;48.832;9.182;2023-07-29T07:09:21;4.43;;;2.03;;
18146;SDS011;9199;48.832;9.182;2023-07-29T07:11:48;5.10;;;2.30;;
18146;SDS011;9199;48.832;9.182;2023-07-29T07:14:15;5.18;;;2.15;;
18146;SDS011;9199;48.832;9.182;2023-07-29T07:16:42;6.35;;;2.50;;
18146;SDS011;9199;48.832;9.182;2023-07-29T07:19:08;4.90;;;2.22;;
18146;SDS011;9199;48.832;9.182;2023-07-29T07:21:35;5.03;;;2.15;;
18146;SDS011;9199;48.832;9.182;2023-07-29T07:24:03;6.00;;;2.40;;
18146;SDS011;9199;48.832;9.182;2023-07-29T07:26:30;6.35;;;2.30;;
18146;SDS011;9199;48.832;9.182;2023-07-29T07:28:57;6.10;;;3.00;;
18146;SDS011;9199;48.832;9.182;2023-07-29T07:31:23;4.85;;;2.40;;
18146;SDS011;9199;48.832;9.182;2023-07-29T07:33:50;4.90;;;2.28;;
18146;SDS011;9199;48.832;9.182;2023-07-29T07:36:17;6.33;;;2.77;;
18146;SDS011;9199;48.832;9.182;2023-07-29T07:38:43;4.25;;;2.10;;
18146;SDS011;9199;48.832;9.182;2023-07-29T07:41:11;4.22;;;1.73;;
18146;SDS011;9199;48.832;9.182;2023-07-29T07:43:38;4.75;;;2.00;;
18146;SDS011;9199;48.832;9.182;2023-07-29T07:46:05;4.10;;;2.13;;
18146;SDS011;9199;48.832;9.182;2023-07-29T07:48:32;3.63;;;1.83;;
18146;SDS011;9199;48.832;9.182;2023-07-29T07:50:59;4.63;;;1.83;;
18146;SDS011;9199;48.832;9.182;2023-07-29T07:53:26;3.60;;;1.77;;
18146;SDS011;9199;48.832;9.182;2023-07-29T07:55:52;6.85;;;2.10;;
18146;SDS011;9199;48.832;9.182;2023-07-29T07:58:20;3.78;;;1.80;;
18146;SDS011;9199;48.832;9.182;2023-07-29T08:00:47;4.07;;;1.60;;
18146;SDS011;9199;48.832;9.182;2023-07-29T08:03:14;3.88;;;1.60;;
18146;SDS011;9199;48.832;9.182;2023-07-29T08:05:41;2.90;;;1.30;;
18146;SDS011;9199;48.832;9.182;2023-07-29T08:08:07;2.58;;;1.10;;
18146;SDS011;9199;48.832;9.182;2023-07-29T08:10:34;2.53;;;1.20;;
18146;SDS011;9199;48.832;9.182;2023-07-29T08:13:01;4.20;;;1.30;;
18146;SDS011;9199;48.832;9.182;2023-07-29T08:15:29;2.88;;;1.00;;
18146;SDS011;9199;48.832;9.182;2023-07-29T08:17:56;2.85;;;1.20;;
18146;SDS011;9199;48.832;9.182;2023-07-29T08:20:22;2.80;;;1.10;;
18146;SDS011;9199;48.832;9.182;2023-07-29T08:22:49;2.45;;;1.02;;
18146;SDS011;9199;48.832;9.182;2023-07-29T08:25:16;3.57;;;1.03;;
18146;SDS011;9199;48.832;9.182;2023-07-29T08:27:42;3.70;;;1.40;;
18146;SDS011;9199;48.832;9.182;2023-07-29T08:30:09;3.90;;;1.40;;
18146;SDS011;9199;48.832;9.182;2023-07-29T08:32:38;2.85;;;1.10;;
18146;SDS011;9199;48.832;9.182;2023-07-29T08:35:05;3.13;;;1.30;;
18146;SDS011;9199;48.832;9.182;2023-07-29T08:37:32;2.50;;;1.10;;
18146;SDS011;9199;48.832;9.182;2023-07-29T08:39:58;3.63;;;2.05;;
18146;SDS011;9199;48.832;9.182;2023-07-29T08:42:27;3.92;;;1.23;;
18146;SDS011;9199;48.832;9.182;2023-07-29T08:44:57;3.47;;;1.10;;
18146;SDS011;9199;48.832;9.182;2023-07-29T08:47:27;3.47;;;1.30;;
18146;SDS011;9199;48.832;9.182;2023-07-29T08:49:55;2.77;;;1.10;;
18146;SDS011;9199;48.832;9.182;2023-07-29T08:52:23;3.25;;;1.25;;
18146;SDS011;9199;48.832;9.182;2023-07-29T08:54:52;4.35;;;1.20;;
18146;SDS011;9199;48.832;9.182;2023-07-29T08:57:18;4.72;;;0.90;;
18146;SDS011;9199;48.832;9.182;2023-07-29T08:59:46;2.85;;;1.38;;
18146;SDS011;9199;48.832;9.182;2023-07-29T09:02:13;4.00;;;1.00;;
18146;SDS011;9199;48.832;9.182;2023-07-29T09:04:40;5.30;;;1.20;;
18146;SDS011;9199;48.832;9.182;2023-07-29T09:07:08;2.70;;;1.00;;
18146;SDS011;9199;48.832;9.182;2023-07-29T09:09:35;3.35;;;1.10;;
18146;SDS011;9199;48.832;9.182;2023-07-29T09:12:02;3.45;;;1.30;;
18146;SDS011;9199;48.832;9.182;2023-07-29T09:14:30;3.33;;;1.10;;
18146;SDS011;9199;48.832;9.182;2023-07-29T09:16:57;5.70;;;1.20;;
18146;SDS011;9199;48.832;9.182;2023-07-29T09:19:24;3.92;;;1.00;;
18146;SDS011;9199;48.832;9.182;2023-07-29T09:21:52;2.28;;;1.05;;
18146;SDS011;9199;48.832;9.182;2023-07-29T09:24:20;2.65;;;1.27;;
18146;SDS011;9199;48.832;9.182;2023-07-29T09:26:50;3.43;;;1.10;;
18146;SDS011;9199;48.832;9.182;2023-07-29T09:29:21;3.33;;;1.20;;
18146;SDS011;9199;48.832;9.182;2023-07-29T09:31:48;4.30;;;1.30;;
18146;SDS011;9199;48.832;9.182;2023-07-29T09:34:15;3.03;;;1.13;;
18146;SDS011;9199;48.832;9.182;2023-07-29T09:36:42;3.28;;;1.05;;
18146;SDS011;9199;48.832;9.182;2023-07-29T09:39:10;2.57;;;1.00;;
18146;SDS011;9199;48.832;9.182;2023-07-29T09:41:39;3.47;;;1.10;;
18146;SDS011;9199;48.832;9.182;2023-07-29T09:44:06;2.90;;;1.33;;
18146;SDS011;9199;48.832;9.182;2023-07-29T09:46:33;3.03;;;1.20;;
18146;SDS011;9199;48.832;9.182;2023-07-29T09:49:01;2.85;;;1.25;;
18146;SDS011;9199;48.832;9.182;2023-07-29T09:51:29;2.50;;;1.07;;
18146;SDS011;9199;48.832;9.182;2023-07-29T09:53:56;3.08;;;1.20;;
18146;SDS011;9199;48.832;9.182;2023-07-29T09:56:24;2.40;;;1.05;;
18146;SDS011;9199;48.832;9.182;2023-07-29T09:58:53;2.28;;;1.00;;
18146;SDS011;9199;48.832;9.182;2023-07-29T10:01:22;3.35;;;1.30;;
18146;SDS011;9199;48.832;9.182;2023-07-29T10:03:49;4.13;;;1.20;;
18146;SDS011;9199;48.832;9.182;2023-07-29T10:06:16;3.35;;;1.10;;
18146;SDS011;9199;48.832;9.182;2023-07-29T10:08:44;3.08;;;1.35;;
18146;SDS011;9199;48.832;9.182;2023-07-29T10:11:11;2.63;;;1.25;;
18146;SDS011;9199;48.832;9.182;2023-07-29T10:13:38;2.83;;;1.20;;
18146;SDS011;9199;48.832;9.182;2023-07-29T10:16:06;4.90;;;1.30;;
18146;SDS011;9199;48.832;9.182;2023-07-29T10:18:33;3.15;;;1.20;;
18146;SDS011;9199;48.832;9.182;2023-07-29T10:21:00;3.75;;;1.30;;
18146;SDS011;9199;48.832;9.182;2023-07-29T10:23:31;3.83;;;1.05;;
18146;SDS011;9199;48.832;9.182;2023-07-29T10:26:03;3.25;;;1.00;;
18146;SDS011;9199;48.832;9.182;2023-07-29T10:28:32;2.83;;;1.30;;
18146;SDS011;9199;48.832;9.182;2023-07-29T10:31:00;2.78;;;1.20;;
18146;SDS011;9199;48.832;9.182;2023-07-29T10:33:29;2.30;;;1.08;;
18146;SDS011;9199;48.832;9.182;2023-07-29T10:36:00;2.17;;;0.90;;
18146;SDS011;9199;48.832;9.182;2023-07-29T10:38:27;2.60;;;0.90;;
18146;SDS011;9199;48.832;9.182;2023-07-29T10:40:55;2.83;;;1.03;;
18146;SDS011;9199;48.832;9.182;2023-07-29T10:43:25;3.72;;;1.10;;
18146;SDS011;9199;48.832;9.182;2023-07-29T10:45:52;2.08;;;1.00;;
18146;SDS011;9199;48.832;9.182;2023-07-29T10:51:23;2.15;;;1.10;;
18146;SDS011;9199;48.832;9.182;2023-07-29T10:53:54;2.30;;;1.00;;
18146;SDS011;9199;48.832;9.182;2023-07-29T10:56:25;3.08;;;1.30;;
18146;SDS011;9199;48.832;9.182;2023-07-29T10:58:54;1.95;;;0.90;;
18146;SDS011;9199;48.832;9.182;2023-07-29T11:01:31;2.42;;;0.98;;
18146;SDS011;9199;48.832;9.182;2023-07-29T11:09:52;3.35;;;1.10;;
18146;SDS011;9199;48.832;9.182;2023-07-29T11:12:34;2.78;;;1.27;;
18146;SDS011;9199;48.832;9.182;2023-07-29T11:15:14;2.20;;;1.00;;
18146;SDS011;9199;48.832;9.182;2023-07-29T11:17:43;3.25;;;1.02;;
18146;SDS011;9199;48.832;9.182;2023-07-29T11:20:13;3.47;;;1.00;;
18146;SDS011;9199;48.832;9.182;2023-07-29T11:22:41;2.50;;;1.10;;
18146;SDS011;9199;48.832;9.182;2023-07-29T11:25:08;3.63;;;1.20;;
18146;SDS011;9199;48.832;9.182;2023-07-29T11:27:36;3.63;;;1.05;;
18146;SDS011;9199;48.832;9.182;2023-07-29T11:30:03;3.10;;;0.93;;
18146;SDS011;9199;48.832;9.182;2023-07-29T11:32:33;3.07;;;0.90;;
18146;SDS011;9199;48.832;9.182;2023-07-29T11:35:01;3.00;;;1.20;;
18146;SDS011;9199;48.832;9.182;2023-07-29T11:37:30;2.50;;;1.00;;
18146;SDS011;9199;48.832;9.182;2023-07-29T11:39:57;3.05;;;1.15;;
18146;SDS011;9199;48.832;9.182;2023-07-29T11:42:24;3.42;;;1.20;;
18146;SDS011;9199;48.832;9.182;2023-07-29T11:44:53;3.27;;;1.10;;
18146;SDS011;9199;48.832;9.182;2023-07-29T11:47:19;2.58;;;1.10;;
18146;SDS011;9199;48.832;9.182;2023-07-29T11:49:46;2.65;;;1.05;;
18146;SDS011;9199;48.832;9.182;2023-07-29T11:52:13;2.58;;;1.30;;
18146;SDS011;9199;48.832;9.182;2023-07-29T11:54:45;3.30;;;1.25;;
18146;SDS011;9199;48.832;9.182;2023-07-29T11:57:14;3.30;;;1.10;;
18146;SDS011;9199;48.832;9.182;2023-07-29T11:59:41;3.17;;;1.20;;
18146;SDS011;9199;48.832;9.182;2023-07-29T12:02:09;2.20;;;1.10;;
18146;SDS011;9199;48.832;9.182;2023-07-29T12:04:38;2.50;;;1.30;;
18146;SDS011;9199;48.832;9.182;2023-07-29T12:07:06;2.90;;;1.25;;
18146;SDS011;9199;48.832;9.182;2023-07-29T12:09:33;2.73;;;1.37;;
18146;SDS011;9199;48.832;9.182;2023-07-29T12:12:01;2.83;;;1.35;;
18146;SDS011;9199;48.832;9.182;2023-07-29T12:14:29;2.80;;;1.30;;
18146;SDS011;9199;48.832;9.182;2023-07-29T12:16:55;3.28;;;1.25;;
18146;SDS011;9199;48.832;9.182;2023-07-29T12:19:30;3.45;;;1.30;;
18146;SDS011;9199;48.832;9.182;2023-07-29T12:21:57;3.23;;;1.20;;
18146;SDS011;9199;48.832;9.182;2023-07-29T12:24:24;2.33;;;1.20;;
18146;SDS011;9199;48.832;9.182;2023-07-29T12:26:51;3.08;;;1.52;;
18146;SDS011;9199;48.832;9.182;2023-07-29T12:29:19;2.75;;;1.40;;
18146;SDS011;9199;48.832;9.182;2023-07-29T12:31:46;3.13;;;1.48;;
18146;SDS011;9199;48.832;9.182;2023-07-29T12:34:17;3.13;;;1.40;;
18146;SDS011;9199;48.832;9.182;2023-07-29T12:36:45;2.70;;;1.20;;
18146;SDS011;9199;48.832;9.182;2023-07-29T12:39:16;2.58;;;1.40;;
18146;SDS011;9199;48.832;9.182;2023-07-29T12:41:44;2.80;;;1.30;;
18146;SDS011;9199;48.832;9.182;2023-07-29T12:44:11;3.53;;;1.50;;
18146;SDS011;9199;48.832;9.182;2023-07-29T12:46:39;3.30;;;1.60;;
18146;SDS011;9199;48.832;9.182;2023-07-29T12:49:06;3.35;;;1.38;;
18146;SDS011;9199;48.832;9.182;2023-07-29T12:51:32;3.00;;;1.35;;
18146;SDS011;9199;48.832;9.182;2023-07-29T12:53:59;3.20;;;1.65;;
18146;SDS011;9199;48.832;9.182;2023-07-29T12:56:26;2.90;;;1.50;;
18146;SDS011;9199;48.832;9.182;2023-07-29T12:58:53;3.60;;;1.87;;
18146;SDS011;9199;48.832;9.182;2023-07-29T13:01:19;4.28;;;2.53;;
18146;SDS011;9199;48.832;9.182;2023-07-29T13:03:48;4.25;;;1.75;;
18146;SDS011;9199;48.832;9.182;2023-07-29T13:06:15;3.10;;;1.30;;
18146;SDS011;9199;48.832;9.182;2023-07-29T13:08:42;2.65;;;1.30;;
18146;SDS011;9199;48.832;9.182;2023-07-29T13:11:09;3.20;;;1.30;;
18146;SDS011;9199;48.832;9.182;2023-07-29T13:13:36;3.58;;;1.35;;
18146;SDS011;9199;48.832;9.182;2023-07-29T13:16:03;3.00;;;1.45;;
18146;SDS011;9199;48.832;9.182;2023-07-29T13:18:31;2.60;;;1.30;;
18146;SDS011;9199;48.832;9.182;2023-07-29T13:20:59;2.67;;;1.42;;
18146;SDS011;9199;48.832;9.182;2023-07-29T13:23:26;2.60;;;1.30;;
18146;SDS011;9199;48.832;9.182;2023-07-29T13:25:54;5.72;;;1.58;;
18146;SDS011;9199;48.832;9.182;2023-07-29T13:28:21;3.38;;;1.42;;
18146;SDS011;9199;48.832;9.182;2023-07-29T13:30:48;2.95;;;1.40;;
18146;SDS011;9199;48.832;9.182;2023-07-29T13:33:15;4.88;;;2.65;;
18146;SDS011;9199;48.832;9.182;2023-07-29T13:35:41;3.60;;;1.70;;
18146;SDS011;9199;48.832;9.182;2023-07-29T13:38:09;3.05;;;1.50;;
18146;SDS011;9199;48.832;9.182;2023-07-29T13:40:37;3.33;;;1.33;;
18146;SDS011;9199;48.832;9.182;2023-07-29T13:43:03;3.08;;;1.58;;
18146;SDS011;9199;48.832;9.182;2023-07-29T13:45:30;4.20;;;1.50;;
18146;SDS011;9199;48.832;9.182;2023-07-29T13:47:57;3.13;;;1.40;;
18146;SDS011;9199;48.832;9.182;2023-07-29T13:50:24;2.60;;;1.30;;
18146;SDS011;9199;48.832;9.182;2023-07-29T13:52:50;3.22;;;1.67;;
18146;SDS011;9199;48.832;9.182;2023-07-29T13:55:18;3.47;;;1.50;;
18146;SDS011;9199;48.832;9.182;2023-07-29T13:57:45;3.53;;;1.50;;
18146;SDS011;9199;48.832;9.182;2023-07-29T14:00:13;3.70;;;1.53;;
18146;SDS011;9199;48.832;9.182;2023-07-29T14:02:41;3.53;;;1.50;;
18146;SDS011;9199;48.832;9.182;2023-07-29T14:05:08;4.30;;;1.55;;
18146;SDS011;9199;48.832;9.182;2023-07-29T14:07:36;2.92;;;1.40;;
18146;SDS011;9199;48.832;9.182;2023-07-29T14:10:03;3.45;;;1.50;;
18146;SDS011;9199;48.832;9.182;2023-07-29T14:12:32;3.20;;;1.20;;
18146;SDS011;9199;48.832;9.182;2023-07-29T14:14:58;2.97;;;1.40;;
18146;SDS011;9199;48.832;9.182;2023-07-29T14:17:25;3.28;;;1.40;;
18146;SDS011;9199;48.832;9.182;2023-07-29T14:19:52;2.60;;;1.30;;
18146;SDS011;9199;48.832;9.182;2023-07-29T14:22:19;3.30;;;1.63;;
18146;SDS011;9199;48.832;9.182;2023-07-29T14:24:46;2.93;;;1.50;;
18146;SDS011;9199;48.832;9.182;2023-07-29T14:27:12;2.90;;;1.65;;
18146;SDS011;9199;48.832;9.182;2023-07-29T14:29:42;3.22;;;1.60;;
18146;SDS011;9199;48.832;9.182;2023-07-29T14:32:09;3.40;;;1.70;;
18146;SDS011;9199;48.832;9.182;2023-07-29T14:34:36;3.40;;;1.58;;
18146;SDS011;9199;48.832;9.182;2023-07-29T14:37:03;2.47;;;1.30;;
18146;SDS011;9199;48.832;9.182;2023-07-29T14:39:30;3.40;;;1.80;;
18146;SDS011;9199;48.832;9.182;2023-07-29T14:41:57;5.15;;;1.50;;
18146;SDS011;9199;48.832;9.182;2023-07-29T14:44:24;3.00;;;1.40;;
18146;SDS011;9199;48.832;9.182;2023-07-29T14:46:52;4.55;;;1.70;;
18146;SDS011;9199;48.832;9.182;2023-07-29T14:49:19;3.20;;;1.60;;
18146;SDS011;9199;48.832;9.182;2023-07-29T14:51:46;3.83;;;1.40;;
18146;SDS011;9199;48.832;9.182;2023-07-29T14:54:13;3.83;;;1.70;;
18146;SDS011;9199;48.832;9.182;2023-07-29T14:56:40;3.10;;;1.60;;
18146;SDS011;9199;48.832;9.182;2023-07-29T14:59:06;3.10;;;1.70;;
18146;SDS011;9199;48.832;9.182;2023-07-29T15:01:33;3.73;;;1.53;;
18146;SDS011;9199;48.832;9.182;2023-07-29T15:04:01;3.28;;;1.35;;
18146;SDS011;9199;48.832;9.182;2023-07-29T15:06:29;3.28;;;1.42;;
18146;SDS011;9199;48.832;9.182;2023-07-29T15:08:55;2.72;;;1.38;;
18146;SDS011;9199;48.832;9.182;2023-07-29T15:11:22;4.65;;;1.38;;